createdAt,value
2017-08-16T00:00:41.572Z,82.20
2017-08-16T00:03:09.045Z,82.50
2017-08-16T00:05:37.273Z,82.80
2017-08-16T00:08:04.738Z,82.80
2017-08-16T00:10:32.216Z,82.90
2017-08-16T00:12:59.688Z,82.80
2017-08-16T00:15:27.914Z,84.30
2017-08-16T00:17:55.395Z,83.50
2017-08-16T00:20:22.859Z,83.80
2017-08-16T00:22:50.339Z,84.00
2017-08-16T00:25:17.792Z,84.20
2017-08-16T00:27:45.260Z,84.50
2017-08-16T00:30:13.502Z,84.30
2017-08-16T00:32:40.989Z,84.30
2017-08-16T00:35:08.451Z,84.00
2017-08-16T00:37:36.733Z,84.40
2017-08-16T00:40:04.185Z,84.20
2017-08-16T00:42:31.648Z,84.30
2017-08-16T00:44:59.887Z,84.60
2017-08-16T00:47:27.355Z,84.20
2017-08-16T00:49:54.831Z,84.60
2017-08-16T00:52:22.299Z,84.50
2017-08-16T00:54:49.770Z,84.50
2017-08-16T00:57:17.991Z,84.80
2017-08-16T00:59:45.468Z,84.70
2017-08-16T01:02:12.932Z,84.80
2017-08-16T01:04:40.396Z,84.80
2017-08-16T01:07:07.861Z,85.00
2017-08-16T01:09:35.335Z,85.40
2017-08-16T01:12:03.568Z,86.50
2017-08-16T01:14:31.070Z,86.30
2017-08-16T01:16:58.539Z,86.40
2017-08-16T01:19:26.011Z,86.40
2017-08-16T01:21:53.475Z,86.50
2017-08-16T01:24:20.948Z,86.40
2017-08-16T01:26:48.407Z,86.70
2017-08-16T01:29:15.883Z,86.70
2017-08-16T01:31:43.344Z,86.80
2017-08-16T01:34:10.812Z,86.80
2017-08-16T01:36:38.283Z,86.80
2017-08-16T01:39:06.507Z,87.00
2017-08-16T01:41:34.683Z,87.00
2017-08-16T01:44:02.161Z,86.70
2017-08-16T01:46:29.632Z,86.80
2017-08-16T01:48:57.120Z,86.80
2017-08-16T01:51:25.363Z,87.60
2017-08-16T01:53:52.827Z,87.50
2017-08-16T01:56:20.304Z,88.00
2017-08-16T01:58:48.531Z,88.90
2017-08-16T02:01:15.999Z,88.80
2017-08-16T02:03:43.463Z,89.30
2017-08-16T02:06:10.952Z,88.90
2017-08-16T02:08:39.187Z,89.20
2017-08-16T02:11:06.652Z,89.20
2017-08-16T02:13:34.114Z,89.50
2017-08-16T02:16:01.592Z,90.00
2017-08-16T02:18:29.065Z,89.90
2017-08-16T02:20:57.311Z,89.80
2017-08-16T02:23:24.766Z,89.70
2017-08-16T02:25:58.447Z,90.10
2017-08-16T02:28:25.912Z,90.30
2017-08-16T02:30:53.378Z,90.40
2017-08-16T02:33:20.852Z,90.40
2017-08-16T02:35:48.316Z,90.60
2017-08-16T02:38:16.034Z,91.00
2017-08-16T02:40:43.519Z,91.60
2017-08-16T02:43:10.998Z,92.30
2017-08-16T02:45:38.476Z,92.80
2017-08-16T02:48:06.718Z,93.70
2017-08-16T02:50:34.179Z,93.60
2017-08-16T02:53:01.655Z,93.70
2017-08-16T02:55:29.123Z,93.90
2017-08-16T02:57:57.373Z,93.90
2017-08-16T03:00:24.861Z,93.90
2017-08-16T03:02:52.340Z,94.00
2017-08-16T03:05:19.834Z,94.20
2017-08-16T03:07:47.307Z,94.20
2017-08-16T03:10:14.780Z,94.30
2017-08-16T03:12:42.255Z,94.20
2017-08-16T03:15:10.499Z,94.10
2017-08-16T03:17:37.983Z,94.10
2017-08-16T03:20:06.224Z,94.40
2017-08-16T03:22:33.704Z,94.00
2017-08-16T03:25:01.163Z,94.10
2017-08-16T03:27:28.641Z,94.30
2017-08-16T03:29:56.872Z,94.40
2017-08-16T03:32:24.351Z,94.40
2017-08-16T03:34:51.830Z,94.20
2017-08-16T03:37:20.075Z,94.10
2017-08-16T03:39:47.560Z,94.10
2017-08-16T03:42:15.029Z,94.20
2017-08-16T03:44:43.288Z,94.10
2017-08-16T03:47:10.756Z,94.10
2017-08-16T03:49:39.004Z,95.20
2017-08-16T03:52:06.485Z,94.80
2017-08-16T03:54:33.963Z,94.80
2017-08-16T03:57:02.204Z,95.00
2017-08-16T03:59:29.688Z,95.00
2017-08-16T04:01:58.377Z,94.90
2017-08-16T04:04:26.620Z,95.30
2017-08-16T04:06:54.112Z,95.10
2017-08-16T04:09:22.373Z,95.30
2017-08-16T04:11:49.847Z,95.30
2017-08-16T04:14:17.335Z,95.50
2017-08-16T04:16:44.820Z,95.50
2017-08-16T04:19:12.284Z,95.50
2017-08-16T04:21:39.758Z,95.20
2017-08-16T04:24:07.229Z,95.00
2017-08-16T04:26:34.716Z,94.90
2017-08-16T04:29:02.199Z,95.10
2017-08-16T04:31:29.679Z,95.00
2017-08-16T04:33:57.157Z,95.00
2017-08-16T04:36:24.639Z,95.10
2017-08-16T04:38:52.879Z,94.90
2017-08-16T04:41:20.352Z,94.80
2017-08-16T04:43:47.832Z,94.60
2017-08-16T04:46:16.089Z,94.30
2017-08-16T04:48:43.564Z,94.30
2017-08-16T04:51:11.824Z,94.30
2017-08-16T04:53:39.291Z,94.30
2017-08-16T04:56:06.770Z,94.20
2017-08-16T04:58:34.250Z,94.10
2017-08-16T05:01:01.738Z,94.10
2017-08-16T05:03:29.204Z,94.10
2017-08-16T05:05:56.701Z,94.00
2017-08-16T05:08:24.182Z,94.20
2017-08-16T05:10:51.659Z,94.20
2017-08-16T05:13:19.126Z,94.20
2017-08-16T05:15:46.615Z,94.10
2017-08-16T05:18:14.871Z,94.00
2017-08-16T05:20:42.358Z,94.00
2017-08-16T05:23:10.606Z,94.60
2017-08-16T05:25:38.088Z,94.10
2017-08-16T05:28:06.336Z,93.90
2017-08-16T05:30:33.825Z,93.90
2017-08-16T05:33:02.061Z,94.50
2017-08-16T05:35:29.536Z,94.20
2017-08-16T05:37:57.003Z,94.20
2017-08-16T05:40:24.499Z,94.10
2017-08-16T05:42:51.973Z,94.50
2017-08-16T05:45:19.446Z,94.40
2017-08-16T05:47:46.923Z,94.40
2017-08-16T05:50:14.413Z,94.50
2017-08-16T05:52:42.651Z,94.60
2017-08-16T05:55:10.130Z,94.60
2017-08-16T05:57:37.612Z,94.60
2017-08-16T06:00:05.845Z,94.30
2017-08-16T06:02:33.320Z,94.50
2017-08-16T06:05:00.795Z,94.40
2017-08-16T06:07:29.049Z,93.80
2017-08-16T06:09:56.528Z,93.70
2017-08-16T06:12:24.776Z,94.00
2017-08-16T06:14:52.259Z,94.00
2017-08-16T06:17:26.100Z,93.90
2017-08-16T06:19:53.585Z,94.30
2017-08-16T06:22:21.065Z,94.50
2017-08-16T06:24:48.545Z,94.70
2017-08-16T06:27:16.019Z,95.30
2017-08-16T06:29:44.252Z,94.40
2017-08-16T06:32:11.731Z,94.30
2017-08-16T06:34:39.196Z,94.60
2017-08-16T06:37:06.674Z,94.80
2017-08-16T06:39:34.909Z,94.50
2017-08-16T06:42:02.407Z,94.50
2017-08-16T06:44:29.890Z,94.40
2017-08-16T06:46:57.381Z,94.50
2017-08-16T06:49:24.864Z,94.40
2017-08-16T06:51:52.332Z,94.50
2017-08-16T06:54:20.572Z,94.20
2017-08-16T06:56:48.071Z,94.10
2017-08-16T06:59:16.314Z,93.20
2017-08-16T07:01:43.780Z,93.20
2017-08-16T07:04:11.263Z,93.60
2017-08-16T07:06:39.503Z,93.00
2017-08-16T07:09:06.983Z,93.00
2017-08-16T07:11:34.459Z,93.00
2017-08-16T07:14:02.704Z,92.60
2017-08-16T07:16:30.176Z,92.60
2017-08-16T07:18:57.655Z,92.60
2017-08-16T07:21:25.903Z,92.60
2017-08-16T07:23:53.386Z,92.60
2017-08-16T07:26:21.626Z,92.80
2017-08-16T07:28:49.112Z,92.80
2017-08-16T07:31:17.363Z,92.80
2017-08-16T07:33:44.838Z,92.80
2017-08-16T07:36:12.316Z,92.60
2017-08-16T07:38:40.565Z,92.70
2017-08-16T07:41:08.032Z,92.70
2017-08-16T07:43:35.507Z,92.90
2017-08-16T07:46:03.747Z,92.70
2017-08-16T07:48:31.236Z,92.70
2017-08-16T07:50:59.468Z,92.20
2017-08-16T07:53:26.960Z,91.90
2017-08-16T07:55:54.436Z,91.40
2017-08-16T07:58:22.684Z,91.30
2017-08-16T08:00:50.164Z,91.30
2017-08-16T08:03:17.646Z,91.30
2017-08-16T08:05:45.119Z,91.50
2017-08-16T08:08:12.584Z,90.90
2017-08-16T08:10:40.069Z,90.60
2017-08-16T08:13:07.546Z,90.60
2017-08-16T08:15:35.026Z,90.70
2017-08-16T08:18:03.265Z,90.60
2017-08-16T08:20:30.739Z,90.60
2017-08-16T08:22:58.211Z,90.20
2017-08-16T08:25:26.465Z,90.60
2017-08-16T08:27:53.954Z,90.60
2017-08-16T08:30:22.198Z,88.90
2017-08-16T08:32:51.479Z,88.80
2017-08-16T08:35:18.957Z,87.50
2017-08-16T08:37:46.422Z,87.30
2017-08-16T08:40:13.921Z,86.50
2017-08-16T08:45:15.423Z,86.90
2017-08-16T08:47:42.897Z,86.30
2017-08-16T08:50:10.360Z,86.20
2017-08-16T08:52:37.840Z,85.20
2017-08-16T08:55:06.077Z,84.60
2017-08-16T08:57:33.550Z,84.60
2017-08-16T09:00:01.026Z,82.00
2017-08-16T09:02:28.513Z,84.20
2017-08-16T09:04:55.979Z,83.30
2017-08-16T09:07:23.466Z,82.60
2017-08-16T09:09:50.938Z,82.40
2017-08-16T09:12:18.412Z,82.10
2017-08-16T09:14:45.876Z,81.20
2017-08-16T09:17:13.367Z,81.10
2017-08-16T09:19:40.852Z,81.60
2017-08-16T09:22:08.328Z,79.60
2017-08-16T09:24:35.803Z,79.40
2017-08-16T09:27:03.288Z,79.60
2017-08-16T09:29:31.518Z,79.20
2017-08-16T09:32:02.521Z,79.10
2017-08-16T09:34:35.479Z,80.10
2017-08-16T09:37:03.731Z,80.60
2017-08-16T09:39:31.203Z,79.70
2017-08-16T09:41:58.676Z,79.90
2017-08-16T09:44:26.911Z,80.40
2017-08-16T09:46:54.412Z,80.30
2017-08-16T09:49:22.791Z,79.30
2017-08-16T09:51:51.038Z,79.50
2017-08-16T09:54:18.527Z,79.00
2017-08-16T09:56:46.016Z,79.30
2017-08-16T09:59:13.505Z,78.60
2017-08-16T10:01:40.999Z,79.70
2017-08-16T10:04:08.469Z,78.70
2017-08-16T10:06:36.708Z,76.40
2017-08-16T10:09:04.192Z,76.30
2017-08-16T10:11:31.650Z,78.50
2017-08-16T10:13:59.899Z,77.40
2017-08-16T10:16:27.375Z,77.40
2017-08-16T10:18:54.851Z,77.60
2017-08-16T10:21:23.092Z,76.50
2017-08-16T10:23:50.579Z,76.50
2017-08-16T10:26:18.806Z,76.50
2017-08-16T10:28:46.343Z,75.90
2017-08-16T10:31:13.986Z,76.00
2017-08-16T10:33:42.236Z,76.10
2017-08-16T10:36:09.716Z,76.10
2017-08-16T10:38:37.961Z,74.80
2017-08-16T10:41:05.424Z,74.70
2017-08-16T10:43:32.896Z,75.70
2017-08-16T10:46:00.384Z,75.40
2017-08-16T10:48:28.612Z,76.20
2017-08-16T10:50:56.085Z,76.20
2017-08-16T10:53:23.555Z,75.80
2017-08-16T10:55:51.023Z,77.00
2017-08-16T10:58:19.260Z,74.80
2017-08-16T11:00:46.732Z,74.70
2017-08-16T11:03:14.221Z,76.10
2017-08-16T11:05:42.460Z,73.70
2017-08-16T11:08:09.928Z,73.00
2017-08-16T11:10:37.404Z,74.00
2017-08-16T11:13:05.639Z,72.20
2017-08-16T11:15:33.108Z,72.30
2017-08-16T11:18:00.575Z,69.90
2017-08-16T11:20:28.056Z,71.30
2017-08-16T11:22:56.283Z,71.60
2017-08-16T11:25:23.777Z,71.50
2017-08-16T11:27:51.239Z,72.70
2017-08-16T11:30:18.699Z,73.00
2017-08-16T11:32:46.172Z,71.60
2017-08-16T11:35:14.395Z,71.90
2017-08-16T11:37:41.876Z,71.80
2017-08-16T11:40:09.335Z,68.00
2017-08-16T11:42:36.815Z,70.70
2017-08-16T11:45:05.043Z,70.80
2017-08-16T11:47:32.520Z,70.00
2017-08-16T11:49:59.998Z,70.20
2017-08-16T11:52:27.471Z,72.40
2017-08-16T11:54:55.705Z,71.70
2017-08-16T11:57:23.171Z,70.80
2017-08-16T11:59:50.634Z,70.80
2017-08-16T12:02:18.103Z,72.10
2017-08-16T12:04:45.567Z,73.10
2017-08-16T12:07:14.417Z,71.60
2017-08-16T12:09:41.970Z,69.60
2017-08-16T12:12:09.427Z,70.60
2017-08-16T12:14:36.900Z,71.20
2017-08-16T12:17:04.381Z,69.70
2017-08-16T12:19:31.843Z,68.30
2017-08-16T12:21:59.332Z,69.10
2017-08-16T12:24:27.555Z,69.30
2017-08-16T12:26:55.026Z,69.40
2017-08-16T12:29:22.484Z,68.70
2017-08-16T12:31:50.422Z,68.10
2017-08-16T12:34:17.871Z,68.20
2017-08-16T12:36:45.372Z,65.90
2017-08-16T12:39:12.824Z,63.90
2017-08-16T12:41:40.296Z,65.00
2017-08-16T12:44:07.763Z,65.30
2017-08-16T12:46:35.235Z,61.60
2017-08-16T12:49:03.467Z,61.40
2017-08-16T12:51:30.934Z,61.30
2017-08-16T12:53:58.416Z,64.70
2017-08-16T12:56:26.664Z,63.00
2017-08-16T12:58:54.152Z,62.90
2017-08-16T13:01:21.621Z,62.30
2017-08-16T13:03:52.348Z,62.70
2017-08-16T13:06:19.816Z,64.00
2017-08-16T13:08:47.281Z,63.60
2017-08-16T13:11:14.736Z,61.50
2017-08-16T13:14:01.816Z,63.80
2017-08-16T13:16:30.048Z,62.30
2017-08-16T13:18:57.522Z,62.40
2017-08-16T13:21:24.986Z,62.50
2017-08-16T13:23:52.480Z,65.00
2017-08-16T13:26:20.707Z,60.10
2017-08-16T13:28:48.242Z,60.00
2017-08-16T13:31:15.820Z,59.50
2017-08-16T13:33:44.205Z,59.30
2017-08-16T13:36:11.727Z,59.30
2017-08-16T13:38:39.188Z,58.40
2017-08-16T13:41:06.659Z,58.90
2017-08-16T13:43:34.123Z,58.60
2017-08-16T13:46:01.593Z,58.20
2017-08-16T13:48:29.145Z,56.70
2017-08-16T13:50:56.861Z,57.30
2017-08-16T13:53:25.086Z,58.60
2017-08-16T13:55:52.570Z,58.50
2017-08-16T13:58:20.024Z,58.50
2017-08-16T14:00:47.508Z,57.80
2017-08-16T14:03:14.963Z,59.10
2017-08-16T14:05:43.227Z,58.00
2017-08-16T14:08:10.696Z,57.30
2017-08-16T14:10:38.190Z,57.30
2017-08-16T14:13:05.753Z,59.20
2017-08-16T14:15:33.216Z,57.70
2017-08-16T14:18:00.701Z,57.50
2017-08-16T14:20:28.155Z,56.00
2017-08-16T14:22:55.636Z,57.20
2017-08-16T14:25:23.107Z,56.00
2017-08-16T14:27:50.580Z,56.60
2017-08-16T14:30:18.820Z,58.30
2017-08-16T14:32:46.285Z,58.20
2017-08-16T14:35:13.747Z,55.60
2017-08-16T14:37:41.224Z,55.40
2017-08-16T14:40:09.606Z,55.00
2017-08-16T14:42:37.117Z,55.00
2017-08-16T14:45:04.588Z,55.10
2017-08-16T14:47:32.064Z,56.00
2017-08-16T14:49:59.520Z,57.70
2017-08-16T14:52:26.988Z,57.70
2017-08-16T14:54:54.447Z,57.20
2017-08-16T14:57:21.911Z,57.80
2017-08-16T14:59:50.151Z,56.90
2017-08-16T15:02:17.619Z,56.90
2017-08-16T15:04:45.083Z,59.10
2017-08-16T15:07:12.544Z,62.60
2017-08-16T15:09:40.017Z,61.10
2017-08-16T15:12:07.522Z,59.90
2017-08-16T15:14:36.164Z,58.70
2017-08-16T15:17:05.355Z,60.40
2017-08-16T15:19:39.351Z,60.30
2017-08-16T15:22:06.824Z,60.60
2017-08-16T15:24:34.308Z,58.20
2017-08-16T15:27:02.547Z,57.90
2017-08-16T15:29:30.021Z,57.90
2017-08-16T15:31:57.483Z,59.60
2017-08-16T15:34:25.732Z,57.30
2017-08-16T15:36:53.187Z,56.50
2017-08-16T15:39:20.688Z,57.60
2017-08-16T15:41:48.912Z,57.40
2017-08-16T15:44:16.391Z,58.30
2017-08-16T15:46:43.868Z,58.90
2017-08-16T15:49:11.434Z,59.40
2017-08-16T15:51:38.934Z,63.20
2017-08-16T15:54:06.432Z,60.10
2017-08-16T15:56:34.611Z,59.80
2017-08-16T15:59:02.169Z,63.00
2017-08-16T16:01:29.659Z,62.50
2017-08-16T16:03:57.895Z,63.80
2017-08-16T16:06:26.277Z,62.10
2017-08-16T16:08:53.851Z,62.10
2017-08-16T16:11:21.353Z,61.50
2017-08-16T16:13:48.810Z,63.40
2017-08-16T16:16:16.304Z,59.50
2017-08-16T16:18:43.813Z,63.90
2017-08-16T16:21:12.044Z,60.70
2017-08-16T16:23:39.504Z,60.70
2017-08-16T16:26:06.975Z,62.60
2017-08-16T16:28:35.184Z,62.70
2017-08-16T16:31:03.433Z,63.50
2017-08-16T16:33:30.893Z,63.50
2017-08-16T16:35:58.375Z,63.70
2017-08-16T16:38:26.632Z,68.10
2017-08-16T16:40:54.094Z,68.00
2017-08-16T16:43:25.435Z,66.60
2017-08-16T16:45:52.904Z,66.70
2017-08-16T16:48:21.796Z,64.40
2017-08-16T16:50:50.042Z,64.80
2017-08-16T16:53:17.520Z,64.80
2017-08-16T16:55:45.592Z,65.80
2017-08-16T16:58:19.891Z,67.30
2017-08-16T17:00:54.732Z,68.60
2017-08-16T17:03:28.463Z,66.50
2017-08-16T17:05:55.969Z,68.00
2017-08-16T17:08:23.427Z,66.80
2017-08-16T17:10:51.004Z,68.10
2017-08-16T17:13:18.463Z,69.30
2017-08-16T17:15:45.935Z,69.40
2017-08-16T17:18:13.395Z,69.60
2017-08-16T17:20:40.920Z,69.10
2017-08-16T17:23:08.502Z,68.40
2017-08-16T17:25:35.952Z,69.90
2017-08-16T17:28:03.424Z,69.50
2017-08-16T17:30:30.892Z,70.30
2017-08-16T17:32:58.402Z,69.70
2017-08-16T17:35:25.863Z,72.20
2017-08-16T17:37:53.339Z,75.60
2017-08-16T17:40:20.824Z,75.90
2017-08-16T17:42:48.315Z,76.20
2017-08-16T17:45:15.785Z,76.80
2017-08-16T17:47:43.261Z,76.80
2017-08-16T17:50:13.778Z,77.30
2017-08-16T17:52:41.263Z,77.40
2017-08-16T17:55:08.755Z,78.00
2017-08-16T17:57:37.096Z,78.20
2017-08-16T18:00:04.567Z,78.50
2017-08-16T18:02:32.959Z,78.30
2017-08-16T18:05:00.436Z,78.30
2017-08-16T18:07:27.922Z,78.80
2017-08-16T18:09:55.387Z,78.20
2017-08-16T18:12:22.852Z,78.40
2017-08-16T18:14:50.451Z,78.90
2017-08-16T18:17:17.903Z,79.10
2017-08-16T18:19:46.078Z,79.30
2017-08-16T18:22:15.195Z,80.20
2017-08-16T18:24:42.678Z,80.20
2017-08-16T18:27:10.170Z,81.50
2017-08-16T18:29:38.421Z,81.70
2017-08-16T18:32:05.884Z,81.20
2017-08-16T18:34:33.360Z,81.40
2017-08-16T18:37:00.919Z,81.80
2017-08-16T18:39:28.929Z,81.00
2017-08-16T18:41:56.392Z,81.60
2017-08-16T18:44:23.880Z,82.50
2017-08-16T18:46:52.111Z,83.70
2017-08-16T18:49:19.595Z,83.70
2017-08-16T18:51:47.053Z,83.50
2017-08-16T18:54:15.294Z,83.50
2017-08-16T18:56:42.759Z,83.50
2017-08-16T18:59:10.230Z,83.30
2017-08-16T19:01:37.968Z,83.40
2017-08-16T19:04:05.468Z,83.10
2017-08-16T19:06:32.939Z,83.60
2017-08-16T19:09:01.170Z,84.40
2017-08-16T19:11:29.328Z,84.40
2017-08-16T19:13:57.535Z,84.20
2017-08-16T19:16:25.040Z,85.50
2017-08-16T19:18:52.498Z,87.10
2017-08-16T19:21:19.979Z,87.70
2017-08-16T19:23:47.477Z,87.90
2017-08-16T19:26:14.967Z,88.00
2017-08-16T19:28:42.543Z,87.50
2017-08-16T19:31:10.048Z,87.10
2017-08-16T19:33:37.512Z,87.00
2017-08-16T19:36:05.000Z,87.50
2017-08-16T19:38:33.226Z,87.20
2017-08-16T19:41:00.708Z,87.10
2017-08-16T19:43:28.170Z,87.70
2017-08-16T19:45:55.654Z,87.80
2017-08-16T19:48:23.893Z,88.10
2017-08-16T19:50:51.361Z,88.00
2017-08-16T19:53:18.831Z,88.10
2017-08-16T19:55:46.301Z,88.30
2017-08-16T19:58:14.552Z,89.50
2017-08-16T20:00:42.020Z,89.50
2017-08-16T20:03:10.269Z,90.10
2017-08-16T20:05:37.737Z,89.70
2017-08-16T20:08:05.218Z,90.00
2017-08-16T20:10:33.456Z,89.70
2017-08-16T20:13:00.931Z,89.60
2017-08-16T20:15:28.399Z,89.70
2017-08-16T20:17:55.892Z,89.20
2017-08-16T20:20:23.362Z,89.50
2017-08-16T20:22:50.857Z,90.00
2017-08-16T20:25:18.323Z,89.30
2017-08-16T20:27:45.795Z,89.00
2017-08-16T20:30:13.264Z,88.90
2017-08-16T20:32:41.516Z,88.80
2017-08-16T20:35:08.984Z,88.70
2017-08-16T20:37:36.464Z,89.00
2017-08-16T20:40:04.707Z,89.10
2017-08-16T20:42:32.188Z,89.00
2017-08-16T20:45:00.420Z,90.00
2017-08-16T20:47:27.892Z,89.30
2017-08-16T20:49:55.367Z,89.40
2017-08-16T20:52:22.836Z,89.40
2017-08-16T20:54:51.111Z,88.80
2017-08-16T20:57:18.572Z,89.10
2017-08-16T20:59:46.823Z,89.20
2017-08-16T21:02:14.298Z,89.10
2017-08-16T21:04:41.768Z,89.20
2017-08-16T21:07:09.237Z,89.30
2017-08-16T21:09:37.479Z,88.90
2017-08-16T21:12:04.951Z,88.80
2017-08-16T21:14:32.435Z,90.00
2017-08-16T21:17:00.676Z,90.40
2017-08-16T21:19:28.147Z,90.30
2017-08-16T21:21:55.672Z,90.20
2017-08-16T21:24:23.151Z,90.10
2017-08-16T21:26:50.647Z,90.00
2017-08-16T21:29:18.922Z,90.10
2017-08-16T21:31:46.443Z,90.10
2017-08-16T21:34:13.912Z,90.30
2017-08-16T21:36:41.391Z,90.60
2017-08-16T21:39:09.633Z,91.20
2017-08-16T21:41:37.112Z,91.20
2017-08-16T21:44:04.579Z,91.20
2017-08-16T21:46:32.065Z,91.40
2017-08-16T21:48:59.545Z,91.30
2017-08-16T21:51:27.023Z,90.90
2017-08-16T21:53:54.498Z,90.90
2017-08-16T21:56:21.973Z,91.00
2017-08-16T21:58:51.037Z,91.00
2017-08-16T22:01:18.517Z,91.00
2017-08-16T22:04:05.547Z,91.40
2017-08-16T22:06:33.800Z,90.90
2017-08-16T22:09:01.273Z,90.90
2017-08-16T22:11:28.750Z,91.00
2017-08-16T22:13:57.419Z,90.80
2017-08-16T22:16:25.660Z,91.00
2017-08-16T22:18:53.140Z,90.70
2017-08-16T22:21:20.614Z,90.60
2017-08-16T22:23:48.856Z,90.60
2017-08-16T22:26:16.599Z,90.60
2017-08-16T22:28:44.071Z,90.60
2017-08-16T22:31:11.548Z,90.60
2017-08-16T22:33:39.041Z,90.60
2017-08-16T22:36:07.280Z,91.30
2017-08-16T22:38:34.748Z,91.20
2017-08-16T22:41:02.224Z,91.00
2017-08-16T22:43:30.471Z,91.30
2017-08-16T22:45:57.945Z,91.10
2017-08-16T22:48:25.420Z,91.20
2017-08-16T22:50:53.652Z,91.00
2017-08-16T22:53:21.127Z,91.00
2017-08-16T22:55:48.595Z,90.90
2017-08-16T22:58:16.081Z,90.90
2017-08-16T23:00:43.596Z,91.00
2017-08-16T23:03:11.081Z,90.90
2017-08-16T23:05:38.560Z,90.90
2017-08-16T23:08:06.121Z,90.90
2017-08-16T23:10:34.285Z,90.90
2017-08-16T23:13:02.603Z,90.80
2017-08-16T23:15:30.565Z,90.70
2017-08-16T23:17:58.050Z,90.80
2017-08-16T23:20:25.511Z,90.70
2017-08-16T23:22:52.998Z,91.10
2017-08-16T23:25:21.240Z,91.20
2017-08-16T23:27:48.720Z,91.20
2017-08-16T23:30:16.201Z,91.60
2017-08-16T23:32:44.437Z,92.00
2017-08-16T23:35:11.919Z,92.00
2017-08-16T23:37:39.382Z,91.80
2017-08-16T23:40:08.333Z,91.90
2017-08-16T23:42:35.795Z,91.90
2017-08-16T23:45:03.268Z,91.70
2017-08-16T23:47:30.744Z,91.80
2017-08-16T23:49:58.220Z,91.80
2017-08-16T23:52:26.469Z,91.70
2017-08-16T23:54:53.946Z,91.70
2017-08-16T23:57:22.178Z,91.60
2017-08-16T23:59:49.670Z,91.60
